sensor_id;sensor_type;location;lat;lon;timestamp;P1;durP1;ratioP1;P2;durP2;ratioP2
9115;SDS011;4593;53.652;10.168;2023-02-28T00:01:22;5.00;;;3.27;;
9115;SDS011;4593;53.652;10.168;2023-02-28T00:03:48;4.17;;;2.97;;
9115;SDS011;4593;53.652;10.168;2023-02-28T00:06:14;3.57;;;2.70;;
9115;SDS011;4593;53.652;10.168;2023-02-28T00:08:40;2.83;;;2.40;;
9115;SDS011;4593;53.652;10.168;2023-02-28T00:11:10;5.03;;;2.67;;
9115;SDS011;4593;53.652;10.168;2023-02-28T00:13:41;3.30;;;3.00;;
9115;SDS011;4593;53.652;10.168;2023-02-28T00:16:14;5.83;;;3.00;;
9115;SDS011;4593;53.652;10.168;2023-02-28T00:18:42;3.30;;;3.00;;
9115;SDS011;4593;53.652;10.168;2023-02-28T00:21:08;3.30;;;3.00;;
9115;SDS011;4593;53.652;10.168;2023-02-28T00:23:34;3.33;;;2.80;;
9115;SDS011;4593;53.652;10.168;2023-02-28T00:26:01;3.50;;;2.87;;
9115;SDS011;4593;53.652;10.168;2023-02-28T00:28:26;3.40;;;2.60;;
9115;SDS011;4593;53.652;10.168;2023-02-28T00:30:52;2.63;;;2.40;;
9115;SDS011;4593;53.652;10.168;2023-02-28T00:33:18;3.60;;;3.03;;
9115;SDS011;4593;53.652;10.168;2023-02-28T00:35:43;3.17;;;2.63;;
9115;SDS011;4593;53.652;10.168;2023-02-28T00:38:11;2.77;;;2.53;;
9115;SDS011;4593;53.652;10.168;2023-02-28T00:40:38;2.50;;;2.30;;
9115;SDS011;4593;53.652;10.168;2023-02-28T00:43:03;8.60;;;2.20;;
9115;SDS011;4593;53.652;10.168;2023-02-28T00:45:29;3.73;;;2.53;;
9115;SDS011;4593;53.652;10.168;2023-02-28T00:47:55;2.53;;;2.37;;
9115;SDS011;4593;53.652;10.168;2023-02-28T00:50:20;11.23;;;2.37;;
9115;SDS011;4593;53.652;10.168;2023-02-28T00:52:47;3.13;;;2.83;;
9115;SDS011;4593;53.652;10.168;2023-02-28T00:55:13;3.30;;;2.53;;
9115;SDS011;4593;53.652;10.168;2023-02-28T00:57:38;6.67;;;2.80;;
9115;SDS011;4593;53.652;10.168;2023-02-28T01:00:05;3.03;;;2.73;;
9115;SDS011;4593;53.652;10.168;2023-02-28T01:02:32;3.37;;;2.33;;
9115;SDS011;4593;53.652;10.168;2023-02-28T01:04:57;2.70;;;2.50;;
9115;SDS011;4593;53.652;10.168;2023-02-28T01:09:50;2.80;;;2.60;;
9115;SDS011;4593;53.652;10.168;2023-02-28T01:12:16;3.47;;;2.63;;
9115;SDS011;4593;53.652;10.168;2023-02-28T01:14:42;5.87;;;3.07;;
9115;SDS011;4593;53.652;10.168;2023-02-28T01:17:08;3.50;;;3.20;;
9115;SDS011;4593;53.652;10.168;2023-02-28T01:19:34;2.63;;;2.43;;
9115;SDS011;4593;53.652;10.168;2023-02-28T01:22:04;2.87;;;2.63;;
9115;SDS011;4593;53.652;10.168;2023-02-28T01:24:30;2.43;;;2.23;;
9115;SDS011;4593;53.652;10.168;2023-02-28T01:26:56;2.53;;;2.33;;
9115;SDS011;4593;53.652;10.168;2023-02-28T01:29:22;2.60;;;2.40;;
9115;SDS011;4593;53.652;10.168;2023-02-28T01:31:47;3.80;;;2.70;;
9115;SDS011;4593;53.652;10.168;2023-02-28T01:34:13;9.53;;;3.33;;
9115;SDS011;4593;53.652;10.168;2023-02-28T01:36:39;3.43;;;2.90;;
9115;SDS011;4593;53.652;10.168;2023-02-28T01:39:04;2.60;;;2.40;;
9115;SDS011;4593;53.652;10.168;2023-02-28T01:41:32;3.10;;;2.90;;
9115;SDS011;4593;53.652;10.168;2023-02-28T01:44:06;2.93;;;2.50;;
9115;SDS011;4593;53.652;10.168;2023-02-28T01:46:52;2.60;;;2.40;;
9115;SDS011;4593;53.652;10.168;2023-02-28T01:49:18;3.53;;;2.40;;
9115;SDS011;4593;53.652;10.168;2023-02-28T01:51:54;5.73;;;2.83;;
9115;SDS011;4593;53.652;10.168;2023-02-28T01:54:26;5.50;;;2.70;;
9115;SDS011;4593;53.652;10.168;2023-02-28T01:57:10;3.43;;;2.80;;
9115;SDS011;4593;53.652;10.168;2023-02-28T01:59:48;3.00;;;2.70;;
9115;SDS011;4593;53.652;10.168;2023-02-28T02:02:24;4.40;;;2.60;;
9115;SDS011;4593;53.652;10.168;2023-02-28T02:04:52;4.30;;;2.80;;
9115;SDS011;4593;53.652;10.168;2023-02-28T02:07:26;2.93;;;2.73;;
9115;SDS011;4593;53.652;10.168;2023-02-28T02:10:01;3.37;;;2.90;;
9115;SDS011;4593;53.652;10.168;2023-02-28T02:15:17;4.33;;;2.60;;
9115;SDS011;4593;53.652;10.168;2023-02-28T02:17:56;3.23;;;2.47;;
9115;SDS011;4593;53.652;10.168;2023-02-28T02:23:37;5.20;;;2.60;;
9115;SDS011;4593;53.652;10.168;2023-02-28T02:28:41;3.53;;;2.57;;
9115;SDS011;4593;53.652;10.168;2023-02-28T02:34:24;6.53;;;2.80;;
9115;SDS011;4593;53.652;10.168;2023-02-28T02:37:13;3.43;;;3.07;;
9115;SDS011;4593;53.652;10.168;2023-02-28T02:40:00;4.50;;;3.00;;
9115;SDS011;4593;53.652;10.168;2023-02-28T02:42:48;2.43;;;2.33;;
9115;SDS011;4593;53.652;10.168;2023-02-28T02:48:08;8.07;;;2.37;;
9115;SDS011;4593;53.652;10.168;2023-02-28T02:50:42;3.20;;;2.43;;
9115;SDS011;4593;53.652;10.168;2023-02-28T02:53:10;3.13;;;2.70;;
9115;SDS011;4593;53.652;10.168;2023-02-28T02:55:40;4.73;;;3.27;;
9115;SDS011;4593;53.652;10.168;2023-02-28T02:58:10;2.20;;;2.10;;
9115;SDS011;4593;53.652;10.168;2023-02-28T03:00:52;2.37;;;2.23;;
9115;SDS011;4593;53.652;10.168;2023-02-28T03:03:21;2.40;;;2.30;;
9115;SDS011;4593;53.652;10.168;2023-02-28T03:05:54;3.87;;;2.30;;
9115;SDS011;4593;53.652;10.168;2023-02-28T03:08:26;2.20;;;2.10;;
9115;SDS011;4593;53.652;10.168;2023-02-28T03:10:57;2.40;;;2.20;;
9115;SDS011;4593;53.652;10.168;2023-02-28T03:19:32;2.47;;;2.28;;
9115;SDS011;4593;53.652;10.168;2023-02-28T03:27:08;2.65;;;2.45;;
9115;SDS011;4593;53.652;10.168;2023-02-28T03:29:58;2.60;;;2.40;;
9115;SDS011;4593;53.652;10.168;2023-02-28T03:32:32;2.28;;;2.10;;
9115;SDS011;4593;53.652;10.168;2023-02-28T03:35:11;2.10;;;2.00;;
9115;SDS011;4593;53.652;10.168;2023-02-28T03:37:47;2.50;;;2.35;;
9115;SDS011;4593;53.652;10.168;2023-02-28T03:40:33;7.00;;;2.33;;
9115;SDS011;4593;53.652;10.168;2023-02-28T03:43:03;2.30;;;2.10;;
9115;SDS011;4593;53.652;10.168;2023-02-28T03:45:35;2.63;;;2.45;;
9115;SDS011;4593;53.652;10.168;2023-02-28T03:48:06;2.30;;;2.20;;
9115;SDS011;4593;53.652;10.168;2023-02-28T03:50:40;3.00;;;2.80;;
9115;SDS011;4593;53.652;10.168;2023-02-28T03:53:19;2.72;;;2.53;;
9115;SDS011;4593;53.652;10.168;2023-02-28T03:55:58;2.10;;;2.00;;
9115;SDS011;4593;53.652;10.168;2023-02-28T03:58:39;2.20;;;2.10;;
9115;SDS011;4593;53.652;10.168;2023-02-28T04:01:16;2.97;;;2.35;;
9115;SDS011;4593;53.652;10.168;2023-02-28T04:03:47;2.40;;;2.20;;
9115;SDS011;4593;53.652;10.168;2023-02-28T04:06:16;2.33;;;2.20;;
9115;SDS011;4593;53.652;10.168;2023-02-28T04:08:44;2.35;;;2.25;;
9115;SDS011;4593;53.652;10.168;2023-02-28T04:13:44;4.45;;;2.45;;
9115;SDS011;4593;53.652;10.168;2023-02-28T04:16:10;2.53;;;2.33;;
9115;SDS011;4593;53.652;10.168;2023-02-28T04:18:40;2.40;;;2.30;;
9115;SDS011;4593;53.652;10.168;2023-02-28T04:21:08;3.42;;;2.13;;
9115;SDS011;4593;53.652;10.168;2023-02-28T04:23:35;2.35;;;2.17;;
9115;SDS011;4593;53.652;10.168;2023-02-28T04:26:00;2.90;;;2.70;;
9115;SDS011;4593;53.652;10.168;2023-02-28T04:28:26;6.20;;;2.37;;
9115;SDS011;4593;53.652;10.168;2023-02-28T04:30:55;2.60;;;2.40;;
9115;SDS011;4593;53.652;10.168;2023-02-28T04:33:22;4.10;;;2.95;;
9115;SDS011;4593;53.652;10.168;2023-02-28T04:35:47;2.43;;;2.23;;
9115;SDS011;4593;53.652;10.168;2023-02-28T04:38:13;2.83;;;2.57;;
9115;SDS011;4593;53.652;10.168;2023-02-28T04:40:39;2.83;;;2.27;;
9115;SDS011;4593;53.652;10.168;2023-02-28T04:43:05;3.20;;;2.40;;
9115;SDS011;4593;53.652;10.168;2023-02-28T04:45:30;2.63;;;2.43;;
9115;SDS011;4593;53.652;10.168;2023-02-28T04:47:58;2.78;;;2.17;;
9115;SDS011;4593;53.652;10.168;2023-02-28T04:50:24;2.30;;;2.20;;
9115;SDS011;4593;53.652;10.168;2023-02-28T04:52:50;2.77;;;2.57;;
9115;SDS011;4593;53.652;10.168;2023-02-28T04:55:15;2.63;;;2.40;;
9115;SDS011;4593;53.652;10.168;2023-02-28T04:57:41;2.33;;;2.17;;
9115;SDS011;4593;53.652;10.168;2023-02-28T05:00:08;2.60;;;2.40;;
9115;SDS011;4593;53.652;10.168;2023-02-28T05:02:36;2.25;;;2.05;;
9115;SDS011;4593;53.652;10.168;2023-02-28T05:05:04;2.40;;;2.30;;
9115;SDS011;4593;53.652;10.168;2023-02-28T05:07:29;5.90;;;2.50;;
9115;SDS011;4593;53.652;10.168;2023-02-28T05:09:55;3.00;;;2.53;;
9115;SDS011;4593;53.652;10.168;2023-02-28T05:12:21;2.33;;;2.20;;
9115;SDS011;4593;53.652;10.168;2023-02-28T05:14:46;2.30;;;2.17;;
9115;SDS011;4593;53.652;10.168;2023-02-28T05:17:12;6.87;;;3.00;;
9115;SDS011;4593;53.652;10.168;2023-02-28T05:19:37;2.40;;;2.30;;
9115;SDS011;4593;53.652;10.168;2023-02-28T05:22:03;2.50;;;2.30;;
9115;SDS011;4593;53.652;10.168;2023-02-28T05:24:29;2.30;;;2.20;;
9115;SDS011;4593;53.652;10.168;2023-02-28T05:26:54;3.70;;;3.30;;
9115;SDS011;4593;53.652;10.168;2023-02-28T05:29:20;2.53;;;2.33;;
9115;SDS011;4593;53.652;10.168;2023-02-28T05:31:46;2.40;;;2.20;;
9115;SDS011;4593;53.652;10.168;2023-02-28T05:34:12;4.37;;;2.80;;
9115;SDS011;4593;53.652;10.168;2023-02-28T05:36:40;6.88;;;2.53;;
9115;SDS011;4593;53.652;10.168;2023-02-28T05:39:06;2.42;;;2.33;;
9115;SDS011;4593;53.652;10.168;2023-02-28T05:41:37;3.00;;;2.80;;
9115;SDS011;4593;53.652;10.168;2023-02-28T05:44:06;2.10;;;2.00;;
9115;SDS011;4593;53.652;10.168;2023-02-28T05:46:32;2.80;;;2.60;;
9115;SDS011;4593;53.652;10.168;2023-02-28T05:48:57;2.57;;;2.47;;
9115;SDS011;4593;53.652;10.168;2023-02-28T05:51:25;2.47;;;2.28;;
9115;SDS011;4593;53.652;10.168;2023-02-28T05:53:50;3.00;;;2.77;;
9115;SDS011;4593;53.652;10.168;2023-02-28T05:56:16;3.57;;;2.77;;
9115;SDS011;4593;53.652;10.168;2023-02-28T05:58:42;2.77;;;2.57;;
9115;SDS011;4593;53.652;10.168;2023-02-28T06:03:47;2.92;;;2.72;;
9115;SDS011;4593;53.652;10.168;2023-02-28T06:06:13;3.00;;;2.40;;
9115;SDS011;4593;53.652;10.168;2023-02-28T06:08:39;3.23;;;2.90;;
9115;SDS011;4593;53.652;10.168;2023-02-28T06:11:04;2.47;;;2.37;;
9115;SDS011;4593;53.652;10.168;2023-02-28T06:13:31;3.67;;;2.72;;
9115;SDS011;4593;53.652;10.168;2023-02-28T06:16:00;2.60;;;2.40;;
9115;SDS011;4593;53.652;10.168;2023-02-28T06:18:26;3.60;;;2.95;;
9115;SDS011;4593;53.652;10.168;2023-02-28T06:20:52;4.23;;;3.23;;
9115;SDS011;4593;53.652;10.168;2023-02-28T06:23:19;3.90;;;3.60;;
9115;SDS011;4593;53.652;10.168;2023-02-28T06:25:45;3.45;;;2.90;;
9115;SDS011;4593;53.652;10.168;2023-02-28T06:28:11;2.50;;;2.30;;
9115;SDS011;4593;53.652;10.168;2023-02-28T06:30:37;3.37;;;3.17;;
9115;SDS011;4593;53.652;10.168;2023-02-28T06:33:04;3.47;;;3.08;;
9115;SDS011;4593;53.652;10.168;2023-02-28T06:35:30;2.65;;;2.45;;
9115;SDS011;4593;53.652;10.168;2023-02-28T06:37:56;3.72;;;3.42;;
9115;SDS011;4593;53.652;10.168;2023-02-28T06:40:22;3.07;;;2.77;;
9115;SDS011;4593;53.652;10.168;2023-02-28T06:42:47;3.03;;;2.47;;
9115;SDS011;4593;53.652;10.168;2023-02-28T06:45:13;2.97;;;2.63;;
9115;SDS011;4593;53.652;10.168;2023-02-28T06:47:39;2.93;;;2.70;;
9115;SDS011;4593;53.652;10.168;2023-02-28T06:50:06;3.65;;;3.22;;
9115;SDS011;4593;53.652;10.168;2023-02-28T06:52:34;10.48;;;3.25;;
9115;SDS011;4593;53.652;10.168;2023-02-28T06:55:02;5.22;;;2.90;;
9115;SDS011;4593;53.652;10.168;2023-02-28T06:57:32;2.85;;;2.65;;
9115;SDS011;4593;53.652;10.168;2023-02-28T06:59:59;2.95;;;2.72;;
9115;SDS011;4593;53.652;10.168;2023-02-28T07:02:26;10.50;;;2.85;;
9115;SDS011;4593;53.652;10.168;2023-02-28T07:04:52;2.85;;;2.67;;
9115;SDS011;4593;53.652;10.168;2023-02-28T07:09:47;2.88;;;2.67;;
9115;SDS011;4593;53.652;10.168;2023-02-28T07:12:12;5.17;;;2.67;;
9115;SDS011;4593;53.652;10.168;2023-02-28T07:14:38;3.63;;;3.30;;
9115;SDS011;4593;53.652;10.168;2023-02-28T07:17:04;2.83;;;2.63;;
9115;SDS011;4593;53.652;10.168;2023-02-28T07:19:32;3.40;;;3.10;;
9115;SDS011;4593;53.652;10.168;2023-02-28T07:21:58;3.50;;;2.63;;
9115;SDS011;4593;53.652;10.168;2023-02-28T07:24:24;5.77;;;3.10;;
9115;SDS011;4593;53.652;10.168;2023-02-28T07:26:53;4.85;;;3.15;;
9115;SDS011;4593;53.652;10.168;2023-02-28T07:29:18;3.97;;;3.57;;
9115;SDS011;4593;53.652;10.168;2023-02-28T07:31:44;6.03;;;2.93;;
9115;SDS011;4593;53.652;10.168;2023-02-28T07:34:11;3.67;;;3.20;;
9115;SDS011;4593;53.652;10.168;2023-02-28T07:36:37;4.07;;;3.70;;
9115;SDS011;4593;53.652;10.168;2023-02-28T07:39:03;3.40;;;3.17;;
9115;SDS011;4593;53.652;10.168;2023-02-28T07:41:29;5.78;;;3.90;;
9115;SDS011;4593;53.652;10.168;2023-02-28T07:43:58;3.67;;;3.17;;
9115;SDS011;4593;53.652;10.168;2023-02-28T07:46:24;3.58;;;3.28;;
9115;SDS011;4593;53.652;10.168;2023-02-28T07:48:51;4.03;;;3.63;;
9115;SDS011;4593;53.652;10.168;2023-02-28T07:51:18;4.00;;;3.70;;
9115;SDS011;4593;53.652;10.168;2023-02-28T07:53:44;4.10;;;3.63;;
9115;SDS011;4593;53.652;10.168;2023-02-28T07:56:09;3.27;;;2.90;;
9115;SDS011;4593;53.652;10.168;2023-02-28T07:58:35;4.50;;;3.47;;
9115;SDS011;4593;53.652;10.168;2023-02-28T08:01:05;3.37;;;3.10;;
9115;SDS011;4593;53.652;10.168;2023-02-28T08:03:32;3.22;;;3.03;;
9115;SDS011;4593;53.652;10.168;2023-02-28T08:05:58;6.07;;;3.20;;
9115;SDS011;4593;53.652;10.168;2023-02-28T08:08:24;6.03;;;4.07;;
9115;SDS011;4593;53.652;10.168;2023-02-28T08:10:57;3.78;;;3.47;;
9115;SDS011;4593;53.652;10.168;2023-02-28T08:13:27;3.33;;;3.03;;
9115;SDS011;4593;53.652;10.168;2023-02-28T08:15:54;3.95;;;3.10;;
9115;SDS011;4593;53.652;10.168;2023-02-28T08:18:21;4.60;;;3.05;;
9115;SDS011;4593;53.652;10.168;2023-02-28T08:20:47;4.38;;;3.42;;
9115;SDS011;4593;53.652;10.168;2023-02-28T08:23:13;3.77;;;3.30;;
9115;SDS011;4593;53.652;10.168;2023-02-28T08:25:39;3.30;;;3.00;;
9115;SDS011;4593;53.652;10.168;2023-02-28T08:28:04;4.27;;;3.27;;
9115;SDS011;4593;53.652;10.168;2023-02-28T08:30:30;3.90;;;3.50;;
9115;SDS011;4593;53.652;10.168;2023-02-28T08:32:56;8.87;;;3.33;;
9115;SDS011;4593;53.652;10.168;2023-02-28T08:35:22;7.17;;;3.57;;
9115;SDS011;4593;53.652;10.168;2023-02-28T08:37:48;4.70;;;3.85;;
9115;SDS011;4593;53.652;10.168;2023-02-28T08:40:14;3.70;;;3.40;;
9115;SDS011;4593;53.652;10.168;2023-02-28T08:42:43;4.47;;;4.07;;
9115;SDS011;4593;53.652;10.168;2023-02-28T08:45:10;7.67;;;4.33;;
9115;SDS011;4593;53.652;10.168;2023-02-28T08:47:36;4.13;;;3.70;;
9115;SDS011;4593;53.652;10.168;2023-02-28T08:50:02;4.13;;;3.00;;
9115;SDS011;4593;53.652;10.168;2023-02-28T08:52:28;4.83;;;3.17;;
9115;SDS011;4593;53.652;10.168;2023-02-28T08:54:54;4.00;;;3.10;;
9115;SDS011;4593;53.652;10.168;2023-02-28T08:57:20;4.40;;;3.17;;
9115;SDS011;4593;53.652;10.168;2023-02-28T08:59:45;5.97;;;3.27;;
9115;SDS011;4593;53.652;10.168;2023-02-28T09:02:14;4.57;;;3.40;;
9115;SDS011;4593;53.652;10.168;2023-02-28T09:04:40;5.50;;;2.63;;
9115;SDS011;4593;53.652;10.168;2023-02-28T09:07:06;7.80;;;3.33;;
9115;SDS011;4593;53.652;10.168;2023-02-28T09:09:32;4.47;;;3.63;;
9115;SDS011;4593;53.652;10.168;2023-02-28T09:11:58;4.07;;;3.47;;
9115;SDS011;4593;53.652;10.168;2023-02-28T09:14:24;3.77;;;3.03;;
9115;SDS011;4593;53.652;10.168;2023-02-28T09:16:50;4.27;;;3.10;;
9115;SDS011;4593;53.652;10.168;2023-02-28T09:19:15;5.73;;;3.00;;
9115;SDS011;4593;53.652;10.168;2023-02-28T09:21:41;3.73;;;3.27;;
9115;SDS011;4593;53.652;10.168;2023-02-28T09:24:07;3.60;;;3.30;;
9115;SDS011;4593;53.652;10.168;2023-02-28T09:26:32;3.47;;;3.17;;
9115;SDS011;4593;53.652;10.168;2023-02-28T09:28:59;3.60;;;3.30;;
9115;SDS011;4593;53.652;10.168;2023-02-28T09:31:25;7.57;;;3.03;;
9115;SDS011;4593;53.652;10.168;2023-02-28T09:33:53;3.10;;;2.73;;
9115;SDS011;4593;53.652;10.168;2023-02-28T09:36:20;7.13;;;3.00;;
9115;SDS011;4593;53.652;10.168;2023-02-28T09:38:47;3.10;;;2.50;;
9115;SDS011;4593;53.652;10.168;2023-02-28T09:41:15;2.57;;;2.37;;
9115;SDS011;4593;53.652;10.168;2023-02-28T09:43:47;2.50;;;2.30;;
9115;SDS011;4593;53.652;10.168;2023-02-28T09:46:31;3.03;;;2.77;;
9115;SDS011;4593;53.652;10.168;2023-02-28T09:49:12;3.40;;;2.50;;
9115;SDS011;4593;53.652;10.168;2023-02-28T09:54:23;3.10;;;2.37;;
9115;SDS011;4593;53.652;10.168;2023-02-28T09:59:40;2.87;;;2.57;;
9115;SDS011;4593;53.652;10.168;2023-02-28T10:04:58;4.00;;;3.10;;
9115;SDS011;4593;53.652;10.168;2023-02-28T10:15:50;2.87;;;2.67;;
9115;SDS011;4593;53.652;10.168;2023-02-28T10:18:21;5.53;;;2.87;;
9115;SDS011;4593;53.652;10.168;2023-02-28T10:20:52;2.47;;;2.27;;
9115;SDS011;4593;53.652;10.168;2023-02-28T10:23:38;3.20;;;2.63;;
9115;SDS011;4593;53.652;10.168;2023-02-28T10:26:13;4.60;;;2.83;;
9115;SDS011;4593;53.652;10.168;2023-02-28T10:28:42;4.13;;;2.57;;
9115;SDS011;4593;53.652;10.168;2023-02-28T10:31:11;2.90;;;2.70;;
9115;SDS011;4593;53.652;10.168;2023-02-28T10:33:42;3.63;;;2.70;;
9115;SDS011;4593;53.652;10.168;2023-02-28T10:36:12;2.90;;;2.70;;
9115;SDS011;4593;53.652;10.168;2023-02-28T10:38:42;6.27;;;2.47;;
9115;SDS011;4593;53.652;10.168;2023-02-28T10:41:13;2.60;;;2.40;;
9115;SDS011;4593;53.652;10.168;2023-02-28T10:43:52;2.53;;;2.33;;
9115;SDS011;4593;53.652;10.168;2023-02-28T10:46:36;3.73;;;3.20;;
9115;SDS011;4593;53.652;10.168;2023-02-28T10:49:06;3.97;;;2.90;;
9115;SDS011;4593;53.652;10.168;2023-02-28T10:51:39;5.70;;;2.70;;
9115;SDS011;4593;53.652;10.168;2023-02-28T10:54:06;2.60;;;2.40;;
9115;SDS011;4593;53.652;10.168;2023-02-28T10:57:33;2.87;;;2.50;;
9115;SDS011;4593;53.652;10.168;2023-02-28T10:59:42;3.40;;;2.50;;
9115;SDS011;4593;53.652;10.168;2023-02-28T11:04:56;4.93;;;2.73;;
9115;SDS011;4593;53.652;10.168;2023-02-28T11:07:22;3.20;;;2.90;;
9115;SDS011;4593;53.652;10.168;2023-02-28T11:09:59;2.87;;;2.60;;
9115;SDS011;4593;53.652;10.168;2023-02-28T11:12:36;2.57;;;2.37;;
9115;SDS011;4593;53.652;10.168;2023-02-28T11:15:05;2.80;;;2.60;;
9115;SDS011;4593;53.652;10.168;2023-02-28T11:17:53;2.67;;;2.47;;
9115;SDS011;4593;53.652;10.168;2023-02-28T11:20:24;3.73;;;2.70;;
9115;SDS011;4593;53.652;10.168;2023-02-28T11:22:52;3.20;;;2.90;;
9115;SDS011;4593;53.652;10.168;2023-02-28T11:25:25;3.03;;;2.77;;
9115;SDS011;4593;53.652;10.168;2023-02-28T11:27:59;3.77;;;2.50;;
9115;SDS011;4593;53.652;10.168;2023-02-28T11:30:36;4.87;;;2.93;;
9115;SDS011;4593;53.652;10.168;2023-02-28T11:33:22;2.60;;;2.40;;
9115;SDS011;4593;53.652;10.168;2023-02-28T11:35:51;2.90;;;2.57;;
9115;SDS011;4593;53.652;10.168;2023-02-28T11:38:19;6.23;;;2.70;;
9115;SDS011;4593;53.652;10.168;2023-02-28T12:01:23;4.70;;;2.53;;
9115;SDS011;4593;53.652;10.168;2023-02-28T12:06:28;5.30;;;3.10;;
9115;SDS011;4593;53.652;10.168;2023-02-28T12:11:48;4.03;;;3.13;;
9115;SDS011;4593;53.652;10.168;2023-02-28T12:28:10;3.10;;;2.80;;
9115;SDS011;4593;53.652;10.168;2023-02-28T12:30:41;3.43;;;2.53;;
9115;SDS011;4593;53.652;10.168;2023-02-28T12:33:18;8.93;;;2.57;;
9115;SDS011;4593;53.652;10.168;2023-02-28T12:35:51;3.47;;;2.80;;
9115;SDS011;4593;53.652;10.168;2023-02-28T12:38:44;3.13;;;2.33;;
9115;SDS011;4593;53.652;10.168;2023-02-28T12:41:19;5.87;;;2.67;;
9115;SDS011;4593;53.652;10.168;2023-02-28T12:44:00;3.20;;;2.87;;
9115;SDS011;4593;53.652;10.168;2023-02-28T12:46:45;3.20;;;2.70;;
9115;SDS011;4593;53.652;10.168;2023-02-28T12:52:00;2.33;;;2.13;;
9115;SDS011;4593;53.652;10.168;2023-02-28T13:02:01;3.97;;;2.73;;
9115;SDS011;4593;53.652;10.168;2023-02-28T13:10:24;4.57;;;2.63;;
9115;SDS011;4593;53.652;10.168;2023-02-28T13:12:50;3.67;;;2.80;;
9115;SDS011;4593;53.652;10.168;2023-02-28T13:15:25;4.00;;;2.67;;
9115;SDS011;4593;53.652;10.168;2023-02-28T13:17:54;2.70;;;2.33;;
9115;SDS011;4593;53.652;10.168;2023-02-28T13:20:26;2.50;;;2.30;;
9115;SDS011;4593;53.652;10.168;2023-02-28T13:22:57;2.63;;;2.43;;
9115;SDS011;4593;53.652;10.168;2023-02-28T13:31:13;3.30;;;2.10;;
9115;SDS011;4593;53.652;10.168;2023-02-28T13:38:43;2.10;;;2.00;;
9115;SDS011;4593;53.652;10.168;2023-02-28T13:46:31;3.77;;;3.10;;
9115;SDS011;4593;53.652;10.168;2023-02-28T13:52:17;2.37;;;2.20;;
9115;SDS011;4593;53.652;10.168;2023-02-28T14:05:10;3.13;;;2.80;;
9115;SDS011;4593;53.652;10.168;2023-02-28T14:07:54;3.23;;;2.60;;
9115;SDS011;4593;53.652;10.168;2023-02-28T14:10:26;2.80;;;2.60;;
9115;SDS011;4593;53.652;10.168;2023-02-28T14:18:24;2.90;;;2.70;;
9115;SDS011;4593;53.652;10.168;2023-02-28T14:20:52;4.33;;;2.70;;
9115;SDS011;4593;53.652;10.168;2023-02-28T14:29:43;3.10;;;2.70;;
9115;SDS011;4593;53.652;10.168;2023-02-28T14:32:49;2.70;;;2.47;;
9115;SDS011;4593;53.652;10.168;2023-02-28T14:38:30;3.40;;;3.10;;
9115;SDS011;4593;53.652;10.168;2023-02-28T14:41:00;3.10;;;2.77;;
9115;SDS011;4593;53.652;10.168;2023-02-28T14:43:32;6.63;;;2.80;;
9115;SDS011;4593;53.652;10.168;2023-02-28T14:46:01;3.17;;;2.70;;
9115;SDS011;4593;53.652;10.168;2023-02-28T14:48:29;2.60;;;2.40;;
9115;SDS011;4593;53.652;10.168;2023-02-28T14:50:59;4.07;;;2.93;;
9115;SDS011;4593;53.652;10.168;2023-02-28T14:53:27;3.03;;;2.77;;
9115;SDS011;4593;53.652;10.168;2023-02-28T14:55:55;2.97;;;2.77;;
9115;SDS011;4593;53.652;10.168;2023-02-28T15:00:58;3.03;;;2.83;;
9115;SDS011;4593;53.652;10.168;2023-02-28T15:03:32;4.27;;;3.33;;
9115;SDS011;4593;53.652;10.168;2023-02-28T15:06:12;3.43;;;3.13;;
9115;SDS011;4593;53.652;10.168;2023-02-28T15:08:39;3.60;;;3.30;;
9115;SDS011;4593;53.652;10.168;2023-02-28T15:11:09;3.63;;;3.10;;
9115;SDS011;4593;53.652;10.168;2023-02-28T15:13:45;4.07;;;2.97;;
9115;SDS011;4593;53.652;10.168;2023-02-28T15:16:25;4.10;;;3.10;;
9115;SDS011;4593;53.652;10.168;2023-02-28T15:19:00;2.80;;;2.60;;
9115;SDS011;4593;53.652;10.168;2023-02-28T15:21:32;3.33;;;2.97;;
9115;SDS011;4593;53.652;10.168;2023-02-28T15:26:50;2.70;;;2.50;;
9115;SDS011;4593;53.652;10.168;2023-02-28T15:29:29;3.13;;;2.47;;
9115;SDS011;4593;53.652;10.168;2023-02-28T15:32:01;2.60;;;2.40;;
9115;SDS011;4593;53.652;10.168;2023-02-28T15:34:34;3.27;;;2.53;;
9115;SDS011;4593;53.652;10.168;2023-02-28T15:40:14;2.30;;;2.20;;
9115;SDS011;4593;53.652;10.168;2023-02-28T15:43:48;2.63;;;2.43;;
9115;SDS011;4593;53.652;10.168;2023-02-28T15:48:28;2.63;;;2.43;;
9115;SDS011;4593;53.652;10.168;2023-02-28T15:50:57;3.17;;;2.47;;
9115;SDS011;4593;53.652;10.168;2023-02-28T15:53:45;2.10;;;2.00;;
9115;SDS011;4593;53.652;10.168;2023-02-28T15:56:20;3.23;;;2.73;;
9115;SDS011;4593;53.652;10.168;2023-02-28T15:58:55;2.40;;;2.20;;
9115;SDS011;4593;53.652;10.168;2023-02-28T16:01:26;3.10;;;2.07;;
9115;SDS011;4593;53.652;10.168;2023-02-28T16:03:57;2.93;;;2.73;;
9115;SDS011;4593;53.652;10.168;2023-02-28T16:06:30;2.50;;;2.30;;
9115;SDS011;4593;53.652;10.168;2023-02-28T16:08:59;2.83;;;2.60;;
9115;SDS011;4593;53.652;10.168;2023-02-28T16:11:25;2.37;;;2.03;;
9115;SDS011;4593;53.652;10.168;2023-02-28T16:13:51;9.23;;;2.53;;
9115;SDS011;4593;53.652;10.168;2023-02-28T16:16:21;2.20;;;2.10;;
9115;SDS011;4593;53.652;10.168;2023-02-28T16:18:49;3.43;;;2.23;;
9115;SDS011;4593;53.652;10.168;2023-02-28T16:21:15;2.20;;;2.10;;
9115;SDS011;4593;53.652;10.168;2023-02-28T16:23:41;3.13;;;2.33;;
9115;SDS011;4593;53.652;10.168;2023-02-28T16:26:07;2.40;;;2.20;;
9115;SDS011;4593;53.652;10.168;2023-02-28T16:28:36;2.10;;;2.00;;
9115;SDS011;4593;53.652;10.168;2023-02-28T16:31:04;2.33;;;2.13;;
9115;SDS011;4593;53.652;10.168;2023-02-28T16:33:31;2.30;;;2.10;;
9115;SDS011;4593;53.652;10.168;2023-02-28T16:35:57;2.40;;;2.07;;
9115;SDS011;4593;53.652;10.168;2023-02-28T16:38:23;4.50;;;2.23;;
9115;SDS011;4593;53.652;10.168;2023-02-28T16:40:50;2.50;;;2.30;;
9115;SDS011;4593;53.652;10.168;2023-02-28T16:43:19;2.30;;;2.10;;
9115;SDS011;4593;53.652;10.168;2023-02-28T16:45:49;2.10;;;2.00;;
9115;SDS011;4593;53.652;10.168;2023-02-28T16:48:26;2.60;;;2.00;;
9115;SDS011;4593;53.652;10.168;2023-02-28T16:50:52;2.67;;;2.20;;
9115;SDS011;4593;53.652;10.168;2023-02-28T16:53:18;2.10;;;2.00;;
9115;SDS011;4593;53.652;10.168;2023-02-28T16:55:44;2.50;;;2.30;;
9115;SDS011;4593;53.652;10.168;2023-02-28T16:58:13;2.53;;;2.00;;
9115;SDS011;4593;53.652;10.168;2023-02-28T17:00:41;2.43;;;2.23;;
9115;SDS011;4593;53.652;10.168;2023-02-28T17:03:40;2.60;;;2.10;;
9115;SDS011;4593;53.652;10.168;2023-02-28T17:05:59;2.03;;;1.93;;
9115;SDS011;4593;53.652;10.168;2023-02-28T17:08:25;2.60;;;2.40;;
9115;SDS011;4593;53.652;10.168;2023-02-28T17:10:53;3.00;;;2.27;;
9115;SDS011;4593;53.652;10.168;2023-02-28T17:13:19;2.73;;;2.40;;
9115;SDS011;4593;53.652;10.168;2023-02-28T17:15:45;3.03;;;2.73;;
9115;SDS011;4593;53.652;10.168;2023-02-28T17:18:15;2.40;;;2.20;;
9115;SDS011;4593;53.652;10.168;2023-02-28T17:20:44;2.93;;;2.63;;
9115;SDS011;4593;53.652;10.168;2023-02-28T17:23:10;2.13;;;2.03;;
9115;SDS011;4593;53.652;10.168;2023-02-28T17:25:36;2.23;;;2.13;;
9115;SDS011;4593;53.652;10.168;2023-02-28T17:28:02;2.83;;;2.63;;
9115;SDS011;4593;53.652;10.168;2023-02-28T17:30:33;2.43;;;2.23;;
9115;SDS011;4593;53.652;10.168;2023-02-28T17:32:59;2.10;;;2.00;;
9115;SDS011;4593;53.652;10.168;2023-02-28T17:35:25;2.67;;;2.43;;
9115;SDS011;4593;53.652;10.168;2023-02-28T17:37:51;3.77;;;2.63;;
9115;SDS011;4593;53.652;10.168;2023-02-28T17:40:18;2.47;;;2.37;;
9115;SDS011;4593;53.652;10.168;2023-02-28T17:42:45;3.27;;;2.30;;
9115;SDS011;4593;53.652;10.168;2023-02-28T17:45:11;3.03;;;2.70;;
9115;SDS011;4593;53.652;10.168;2023-02-28T17:47:38;2.37;;;2.17;;
9115;SDS011;4593;53.652;10.168;2023-02-28T17:50:05;2.27;;;2.10;;
9115;SDS011;4593;53.652;10.168;2023-02-28T17:52:31;2.73;;;2.53;;
9115;SDS011;4593;53.652;10.168;2023-02-28T17:55:01;2.60;;;2.40;;
9115;SDS011;4593;53.652;10.168;2023-02-28T17:57:28;2.37;;;2.10;;
9115;SDS011;4593;53.652;10.168;2023-02-28T17:59:53;4.03;;;2.50;;
9115;SDS011;4593;53.652;10.168;2023-02-28T18:02:19;4.47;;;2.23;;